sensor_id;sensor_type;location;lat;lon;timestamp;pressure;altitude;pressure_sealevel;temperature;humidity
17525;BME280;40431;52.198;9.902;2023-02-22T00:01:40;100773.53;;;8.78;100.00
17525;BME280;40431;52.198;9.902;2023-02-22T00:04:15;100775.31;;;8.79;100.00
17525;BME280;40431;52.198;9.902;2023-02-22T00:06:47;100779.75;;;8.80;100.00
17525;BME280;40431;52.198;9.902;2023-02-22T00:09:14;100778.78;;;8.81;100.00
17525;BME280;40431;52.198;9.902;2023-02-22T00:11:45;100779.84;;;8.79;100.00
17525;BME280;40431;52.198;9.902;2023-02-22T00:14:11;100779.09;;;8.75;100.00
17525;BME280;40431;52.198;9.902;2023-02-22T00:16:38;100770.19;;;8.73;100.00
17525;BME280;40431;52.198;9.902;2023-02-22T00:19:04;100772.81;;;8.75;100.00
17525;BME280;40431;52.198;9.902;2023-02-22T00:21:31;100771.94;;;8.74;100.00
17525;BME280;40431;52.198;9.902;2023-02-22T00:23:58;100773.69;;;8.75;100.00
17525;BME280;40431;52.198;9.902;2023-02-22T00:26:31;100773.69;;;8.75;100.00
17525;BME280;40431;52.198;9.902;2023-02-22T00:28:58;100772.88;;;8.73;100.00
17525;BME280;40431;52.198;9.902;2023-02-22T00:31:24;100768.50;;;8.71;100.00
17525;BME280;40431;52.198;9.902;2023-02-22T00:33:50;100764.94;;;8.70;100.00
17525;BME280;40431;52.198;9.902;2023-02-22T00:36:17;100763.09;;;8.71;100.00
17525;BME280;40431;52.198;9.902;2023-02-22T00:38:43;100758.72;;;8.68;100.00
17525;BME280;40431;52.198;9.902;2023-02-22T00:41:11;100757.94;;;8.66;100.00
17525;BME280;40431;52.198;9.902;2023-02-22T00:43:37;100759.69;;;8.67;100.00
17525;BME280;40431;52.198;9.902;2023-02-22T00:46:04;100748.00;;;8.66;100.00
17525;BME280;40431;52.198;9.902;2023-02-22T00:48:30;100750.84;;;8.63;100.00
17525;BME280;40431;52.198;9.902;2023-02-22T00:50:56;100746.41;;;8.62;100.00
17525;BME280;40431;52.198;9.902;2023-02-22T00:53:23;100745.44;;;8.63;100.00
17525;BME280;40431;52.198;9.902;2023-02-22T00:55:51;100741.63;;;8.67;100.00
17525;BME280;40431;52.198;9.902;2023-02-22T00:58:19;100744.25;;;8.69;100.00
17525;BME280;40431;52.198;9.902;2023-02-22T01:00:47;100738.94;;;8.67;100.00
17525;BME280;40431;52.198;9.902;2023-02-22T01:03:15;100739.81;;;8.68;100.00
17525;BME280;40431;52.198;9.902;2023-02-22T01:05:42;100733.53;;;8.67;100.00
17525;BME280;40431;52.198;9.902;2023-02-22T01:08:10;100735.28;;;8.68;100.00
17525;BME280;40431;52.198;9.902;2023-02-22T01:10:37;100730.56;;;8.72;100.00
17525;BME280;40431;52.198;9.902;2023-02-22T01:13:06;100727.09;;;8.70;100.00
17525;BME280;40431;52.198;9.902;2023-02-22T01:15:39;100728.28;;;8.64;100.00
17525;BME280;40431;52.198;9.902;2023-02-22T01:18:07;100723.00;;;8.61;100.00
17525;BME280;40431;52.198;9.902;2023-02-22T01:20:34;100721.28;;;8.60;100.00
17525;BME280;40431;52.198;9.902;2023-02-22T01:23:01;100716.19;;;8.54;100.00
17525;BME280;40431;52.198;9.902;2023-02-22T01:25:31;100715.31;;;8.54;100.00
17525;BME280;40431;52.198;9.902;2023-02-22T01:27:59;100715.88;;;8.41;100.00
17525;BME280;40431;52.198;9.902;2023-02-22T01:30:27;100713.53;;;8.33;100.00
17525;BME280;40431;52.198;9.902;2023-02-22T01:32:55;100712.84;;;8.30;100.00
17525;BME280;40431;52.198;9.902;2023-02-22T01:35:25;100708.13;;;8.33;100.00
17525;BME280;40431;52.198;9.902;2023-02-22T01:37:52;100714.53;;;8.32;100.00
17525;BME280;40431;52.198;9.902;2023-02-22T01:40:21;100709.31;;;8.28;100.00
17525;BME280;40431;52.198;9.902;2023-02-22T01:42:50;100703.91;;;8.28;100.00
17525;BME280;40431;52.198;9.902;2023-02-22T01:48:28;100699.47;;;8.27;100.00
17525;BME280;40431;52.198;9.902;2023-02-22T01:50:58;100687.22;;;8.19;100.00
17525;BME280;40431;52.198;9.902;2023-02-22T01:53:28;100691.03;;;8.15;100.00
17525;BME280;40431;52.198;9.902;2023-02-22T01:55:57;100694.84;;;8.11;100.00
17525;BME280;40431;52.198;9.902;2023-02-22T01:58:25;100685.13;;;8.07;100.00
17525;BME280;40431;52.198;9.902;2023-02-22T02:00:52;100694.19;;;8.06;100.00
17525;BME280;40431;52.198;9.902;2023-02-22T02:03:21;100691.56;;;8.05;100.00
17525;BME280;40431;52.198;9.902;2023-02-22T02:05:54;100688.94;;;8.03;100.00
17525;BME280;40431;52.198;9.902;2023-02-22T02:08:29;100685.41;;;8.01;100.00
17525;BME280;40431;52.198;9.902;2023-02-22T02:11:00;100690.81;;;8.01;100.00
17525;BME280;40431;52.198;9.902;2023-02-22T02:13:27;100684.59;;;7.99;100.00
17525;BME280;40431;52.198;9.902;2023-02-22T02:15:54;100698.91;;;8.01;100.00
17525;BME280;40431;52.198;9.902;2023-02-22T02:18:21;100692.78;;;7.97;100.00
17525;BME280;40431;52.198;9.902;2023-02-22T02:21:00;100682.06;;;7.96;100.00
17525;BME280;40431;52.198;9.902;2023-02-22T02:23:49;100691.03;;;7.96;100.00
17525;BME280;40431;52.198;9.902;2023-02-22T02:26:41;100675.91;;;7.92;100.00
17525;BME280;40431;52.198;9.902;2023-02-22T02:29:27;100678.00;;;7.87;100.00
17525;BME280;40431;52.198;9.902;2023-02-22T02:32:21;100681.75;;;7.83;100.00
17525;BME280;40431;52.198;9.902;2023-02-22T02:34:56;100674.75;;;7.79;100.00
17525;BME280;40431;52.198;9.902;2023-02-22T02:37:32;100662.53;;;7.72;100.00
17525;BME280;40431;52.198;9.902;2023-02-22T02:40:09;100664.47;;;7.68;100.00
17525;BME280;40431;52.198;9.902;2023-02-22T02:42:40;100668.06;;;7.68;100.00
17525;BME280;40431;52.198;9.902;2023-02-22T02:45:12;100668.94;;;7.69;100.00
17525;BME280;40431;52.198;9.902;2023-02-22T02:47:44;100660.03;;;7.67;100.00
17525;BME280;40431;52.198;9.902;2023-02-22T02:50:17;100654.69;;;7.65;100.00
17525;BME280;40431;52.198;9.902;2023-02-22T02:52:45;100665.41;;;7.67;100.00
17525;BME280;40431;52.198;9.902;2023-02-22T02:55:13;100656.81;;;7.59;100.00
17525;BME280;40431;52.198;9.902;2023-02-22T02:57:41;100665.84;;;7.58;100.00
17525;BME280;40431;52.198;9.902;2023-02-22T03:00:09;100661.47;;;7.55;100.00
17525;BME280;40431;52.198;9.902;2023-02-22T03:02:56;100660.88;;;7.48;100.00
17525;BME280;40431;52.198;9.902;2023-02-22T03:05:42;100651.34;;;7.41;100.00
17525;BME280;40431;52.198;9.902;2023-02-22T03:08:17;100647.91;;;7.38;100.00
17525;BME280;40431;52.198;9.902;2023-02-22T03:10:55;100652.69;;;7.31;100.00
17525;BME280;40431;52.198;9.902;2023-02-22T03:13:42;100644.69;;;7.29;100.00
17525;BME280;40431;52.198;9.902;2023-02-22T03:16:14;100649.22;;;7.29;100.00
17525;BME280;40431;52.198;9.902;2023-02-22T03:18:49;100636.81;;;7.25;100.00
17525;BME280;40431;52.198;9.902;2023-02-22T03:21:24;100645.69;;;7.27;100.00
17525;BME280;40431;52.198;9.902;2023-02-22T03:24:00;100642.06;;;7.28;100.00
17525;BME280;40431;52.198;9.902;2023-02-22T03:26:31;100642.94;;;7.28;100.00
17525;BME280;40431;52.198;9.902;2023-02-22T03:29:00;100638.28;;;7.32;100.00
17525;BME280;40431;52.198;9.902;2023-02-22T03:31:33;100638.94;;;7.37;100.00
17525;BME280;40431;52.198;9.902;2023-02-22T03:34:05;100636.25;;;7.37;100.00
17525;BME280;40431;52.198;9.902;2023-02-22T03:36:35;100636.09;;;7.40;100.00
17525;BME280;40431;52.198;9.902;2023-02-22T03:39:06;100628.88;;;7.41;100.00
17525;BME280;40431;52.198;9.902;2023-02-22T03:41:35;100632.44;;;7.41;100.00
17525;BME280;40431;52.198;9.902;2023-02-22T03:44:05;100625.19;;;7.43;100.00
17525;BME280;40431;52.198;9.902;2023-02-22T03:46:35;100631.34;;;7.45;100.00
17525;BME280;40431;52.198;9.902;2023-02-22T03:49:09;100622.31;;;7.46;100.00
17525;BME280;40431;52.198;9.902;2023-02-22T03:51:37;100624.00;;;7.49;100.00
17525;BME280;40431;52.198;9.902;2023-02-22T03:54:05;100622.16;;;7.49;100.00
17525;BME280;40431;52.198;9.902;2023-02-22T03:56:36;100622.09;;;7.51;100.00
17525;BME280;40431;52.198;9.902;2023-02-22T03:59:08;100622.03;;;7.52;100.00
17525;BME280;40431;52.198;9.902;2023-02-22T04:01:35;100622.97;;;7.51;100.00
17525;BME280;40431;52.198;9.902;2023-02-22T04:04:02;100617.44;;;7.55;100.00
17525;BME280;40431;52.198;9.902;2023-02-22T04:06:30;100611.25;;;7.52;100.00
17525;BME280;40431;52.198;9.902;2023-02-22T04:08:56;100623.69;;;7.55;100.00
17525;BME280;40431;52.198;9.902;2023-02-22T04:11:23;100616.41;;;7.57;100.00
17525;BME280;40431;52.198;9.902;2023-02-22T04:13:49;100622.81;;;7.55;100.00
17525;BME280;40431;52.198;9.902;2023-02-22T04:16:15;100624.59;;;7.56;100.00
17525;BME280;40431;52.198;9.902;2023-02-22T04:18:42;100608.41;;;7.56;100.00
17525;BME280;40431;52.198;9.902;2023-02-22T04:21:08;100616.50;;;7.56;100.00
17525;BME280;40431;52.198;9.902;2023-02-22T04:23:35;100617.22;;;7.59;100.00
17525;BME280;40431;52.198;9.902;2023-02-22T04:26:02;100613.63;;;7.59;100.00
17525;BME280;40431;52.198;9.902;2023-02-22T04:28:28;100617.16;;;7.61;100.00
17525;BME280;40431;52.198;9.902;2023-02-22T04:30:54;100603.66;;;7.61;100.00
17525;BME280;40431;52.198;9.902;2023-02-22T04:33:21;100609.19;;;7.58;100.00
17525;BME280;40431;52.198;9.902;2023-02-22T04:35:47;100609.13;;;7.59;100.00
17525;BME280;40431;52.198;9.902;2023-02-22T04:38:14;100605.78;;;7.54;100.00
17525;BME280;40431;52.198;9.902;2023-02-22T04:40:41;100604.88;;;7.53;100.00
17525;BME280;40431;52.198;9.902;2023-02-22T04:43:08;100610.59;;;7.47;100.00
17525;BME280;40431;52.198;9.902;2023-02-22T04:45:34;100611.69;;;7.43;100.00
17525;BME280;40431;52.198;9.902;2023-02-22T04:48:00;100600.94;;;7.42;100.00
17525;BME280;40431;52.198;9.902;2023-02-22T04:50:27;100606.13;;;7.46;100.00
17525;BME280;40431;52.198;9.902;2023-02-22T04:52:53;100609.63;;;7.48;100.00
17525;BME280;40431;52.198;9.902;2023-02-22T04:55:20;100604.47;;;7.44;100.00
17525;BME280;40431;52.198;9.902;2023-02-22T04:57:48;100607.22;;;7.42;100.00
17525;BME280;40431;52.198;9.902;2023-02-22T05:00:16;100609.00;;;7.43;100.00
17525;BME280;40431;52.198;9.902;2023-02-22T05:02:43;100606.34;;;7.42;100.00
17525;BME280;40431;52.198;9.902;2023-02-22T05:05:10;100604.53;;;7.42;100.00
17525;BME280;40431;52.198;9.902;2023-02-22T05:07:38;100605.63;;;7.38;100.00
17525;BME280;40431;52.198;9.902;2023-02-22T05:10:05;100603.88;;;7.37;100.00
17525;BME280;40431;52.198;9.902;2023-02-22T05:12:31;100609.19;;;7.39;100.00
17525;BME280;40431;52.198;9.902;2023-02-22T05:14:59;100601.91;;;7.41;100.00
17525;BME280;40431;52.198;9.902;2023-02-22T05:17:25;100604.59;;;7.41;100.00
17525;BME280;40431;52.198;9.902;2023-02-22T05:19:51;100607.22;;;7.42;100.00
17525;BME280;40431;52.198;9.902;2023-02-22T05:22:18;100607.06;;;7.45;100.00
17525;BME280;40431;52.198;9.902;2023-02-22T05:24:44;100610.72;;;7.44;100.00
17525;BME280;40431;52.198;9.902;2023-02-22T05:27:10;100600.06;;;7.41;100.00
17525;BME280;40431;52.198;9.902;2023-02-22T05:29:37;100601.84;;;7.42;100.00
17525;BME280;40431;52.198;9.902;2023-02-22T05:32:05;100602.69;;;7.43;100.00
17525;BME280;40431;52.198;9.902;2023-02-22T05:34:31;100600.00;;;7.43;100.00
17525;BME280;40431;52.198;9.902;2023-02-22T05:36:58;100601.75;;;7.44;100.00
17525;BME280;40431;52.198;9.902;2023-02-22T05:39:24;100598.31;;;7.40;100.00
17525;BME280;40431;52.198;9.902;2023-02-22T05:41:50;100594.69;;;7.41;100.00
17525;BME280;40431;52.198;9.902;2023-02-22T05:44:17;100600.75;;;7.46;100.00
17525;BME280;40431;52.198;9.902;2023-02-22T05:46:43;100598.13;;;7.45;100.00
17525;BME280;40431;52.198;9.902;2023-02-22T05:49:11;100593.38;;;7.50;100.00
17525;BME280;40431;52.198;9.902;2023-02-22T05:51:37;100603.28;;;7.49;100.00
17525;BME280;40431;52.198;9.902;2023-02-22T05:54:03;100593.59;;;7.45;100.00
17525;BME280;40431;52.198;9.902;2023-02-22T05:56:30;100593.59;;;7.45;100.00
17525;BME280;40431;52.198;9.902;2023-02-22T05:58:56;100591.75;;;7.46;100.00
17525;BME280;40431;52.198;9.902;2023-02-22T06:01:24;100590.72;;;7.48;100.00
17525;BME280;40431;52.198;9.902;2023-02-22T06:03:51;100589.72;;;7.51;100.00
17525;BME280;40431;52.198;9.902;2023-02-22T06:06:19;100586.97;;;7.52;100.00
17525;BME280;40431;52.198;9.902;2023-02-22T06:08:46;100583.28;;;7.53;100.00
17525;BME280;40431;52.198;9.902;2023-02-22T06:11:13;100584.19;;;7.54;100.00
17525;BME280;40431;52.198;9.902;2023-02-22T06:13:39;100590.25;;;7.59;100.00
17525;BME280;40431;52.198;9.902;2023-02-22T06:16:06;100585.78;;;7.58;100.00
17525;BME280;40431;52.198;9.902;2023-02-22T06:18:32;100583.88;;;7.60;100.00
17525;BME280;40431;52.198;9.902;2023-02-22T06:20:59;100583.94;;;7.59;100.00
17525;BME280;40431;52.198;9.902;2023-02-22T06:23:27;100582.44;;;7.53;100.00
17525;BME280;40431;52.198;9.902;2023-02-22T06:25:53;100581.56;;;7.52;100.00
17525;BME280;40431;52.198;9.902;2023-02-22T06:28:19;100576.03;;;7.56;100.00
17525;BME280;40431;52.198;9.902;2023-02-22T06:30:47;100584.91;;;7.58;100.00
17525;BME280;40431;52.198;9.902;2023-02-22T06:33:14;100577.63;;;7.60;100.00
17525;BME280;40431;52.198;9.902;2023-02-22T06:35:40;100579.50;;;7.58;100.00
17525;BME280;40431;52.198;9.902;2023-02-22T06:38:07;100580.53;;;7.55;100.00
17525;BME280;40431;52.198;9.902;2023-02-22T06:40:34;100574.25;;;7.55;100.00
17525;BME280;40431;52.198;9.902;2023-02-22T06:43:01;100577.19;;;7.50;100.00
17525;BME280;40431;52.198;9.902;2023-02-22T06:45:27;100575.53;;;7.47;100.00
17525;BME280;40431;52.198;9.902;2023-02-22T06:47:54;100577.19;;;7.50;100.00
17525;BME280;40431;52.198;9.902;2023-02-22T06:50:24;100581.63;;;7.51;100.00
17525;BME280;40431;52.198;9.902;2023-02-22T06:52:53;100578.22;;;7.47;100.00
17525;BME280;40431;52.198;9.902;2023-02-22T06:55:21;100580.09;;;7.45;100.00
17525;BME280;40431;52.198;9.902;2023-02-22T06:57:50;100589.00;;;7.47;100.00
17525;BME280;40431;52.198;9.902;2023-02-22T07:00:18;100580.84;;;7.49;100.00
17525;BME280;40431;52.198;9.902;2023-02-22T07:02:45;100580.84;;;7.49;100.00
17525;BME280;40431;52.198;9.902;2023-02-22T07:05:12;100586.16;;;7.50;100.00
17525;BME280;40431;52.198;9.902;2023-02-22T07:07:39;100586.81;;;7.56;100.00
17525;BME280;40431;52.198;9.902;2023-02-22T07:10:07;100590.28;;;7.58;100.00
17525;BME280;40431;52.198;9.902;2023-02-22T07:12:34;100593.00;;;7.58;100.00
17525;BME280;40431;52.198;9.902;2023-02-22T07:15:02;100590.25;;;7.59;100.00
17525;BME280;40431;52.198;9.902;2023-02-22T07:17:28;100592.88;;;7.61;100.00
17525;BME280;40431;52.198;9.902;2023-02-22T07:19:54;100589.28;;;7.60;100.00
17525;BME280;40431;52.198;9.902;2023-02-22T07:22:21;100593.81;;;7.60;100.00
17525;BME280;40431;52.198;9.902;2023-02-22T07:24:47;100591.19;;;7.58;100.00
17525;BME280;40431;52.198;9.902;2023-02-22T07:27:13;100589.50;;;7.56;100.00
17525;BME280;40431;52.198;9.902;2023-02-22T07:29:41;100588.69;;;7.53;100.00
17525;BME280;40431;52.198;9.902;2023-02-22T07:32:09;100584.13;;;7.56;100.00
17525;BME280;40431;52.198;9.902;2023-02-22T07:34:35;100588.69;;;7.53;100.00
17525;BME280;40431;52.198;9.902;2023-02-22T07:37:01;100585.13;;;7.53;100.00
17525;BME280;40431;52.198;9.902;2023-02-22T07:39:28;100592.22;;;7.56;100.00
17525;BME280;40431;52.198;9.902;2023-02-22T07:41:54;100591.19;;;7.58;100.00
17525;BME280;40431;52.198;9.902;2023-02-22T07:44:20;100583.09;;;7.58;100.00
17525;BME280;40431;52.198;9.902;2023-02-22T07:46:47;100581.25;;;7.59;100.00
17525;BME280;40431;52.198;9.902;2023-02-22T07:49:16;100575.84;;;7.59;100.00
17525;BME280;40431;52.198;9.902;2023-02-22T07:51:42;100589.28;;;7.60;100.00
17525;BME280;40431;52.198;9.902;2023-02-22T07:54:08;100587.31;;;7.64;100.00
17525;BME280;40431;52.198;9.902;2023-02-22T07:56:35;100592.41;;;7.70;100.00
17525;BME280;40431;52.198;9.902;2023-02-22T07:59:01;100585.19;;;7.71;100.00
17525;BME280;40431;52.198;9.902;2023-02-22T08:01:28;100584.91;;;7.77;100.00
17525;BME280;40431;52.198;9.902;2023-02-22T08:03:55;100575.84;;;7.78;100.00
17525;BME280;40431;52.198;9.902;2023-02-22T08:06:23;100573.94;;;7.80;100.00
17525;BME280;40431;52.198;9.902;2023-02-22T08:08:52;100581.66;;;7.88;100.00
17525;BME280;40431;52.198;9.902;2023-02-22T08:11:18;100572.63;;;7.89;100.00
17525;BME280;40431;52.198;9.902;2023-02-22T08:13:45;100573.97;;;7.97;100.00
17525;BME280;40431;52.198;9.902;2023-02-22T08:16:11;100575.34;;;8.06;100.00
17525;BME280;40431;52.198;9.902;2023-02-22T08:18:37;100583.94;;;8.14;100.00
17525;BME280;40431;52.198;9.902;2023-02-22T08:21:05;100571.63;;;8.26;100.00
17525;BME280;40431;52.198;9.902;2023-02-22T08:23:33;100573.78;;;8.37;100.00
17525;BME280;40431;52.198;9.902;2023-02-22T08:26:03;100569.78;;;8.46;100.00
17525;BME280;40431;52.198;9.902;2023-02-22T08:28:30;100570.78;;;8.61;100.00
17525;BME280;40431;52.198;9.902;2023-02-22T08:30:56;100565.63;;;8.74;100.00
17525;BME280;40431;52.198;9.902;2023-02-22T08:33:23;100570.53;;;8.83;100.00
17525;BME280;40431;52.198;9.902;2023-02-22T08:35:49;100566.34;;;8.93;100.00
17525;BME280;40431;52.198;9.902;2023-02-22T08:38:20;100566.75;;;9.03;100.00
17525;BME280;40431;52.198;9.902;2023-02-22T08:40:48;100558.28;;;9.09;100.00
17525;BME280;40431;52.198;9.902;2023-02-22T08:43:15;100560.47;;;9.18;100.00
17525;BME280;40431;52.198;9.902;2023-02-22T08:45:42;100563.47;;;9.30;100.00
17525;BME280;40431;52.198;9.902;2023-02-22T08:48:09;100560.44;;;9.36;100.00
17525;BME280;40431;52.198;9.902;2023-02-22T08:50:35;100559.97;;;9.44;100.00
17525;BME280;40431;52.198;9.902;2023-02-22T08:53:03;100559.66;;;9.50;100.00
17525;BME280;40431;52.198;9.902;2023-02-22T08:55:33;100564.72;;;9.56;100.00
17525;BME280;40431;52.198;9.902;2023-02-22T08:58:02;100554.50;;;9.61;100.00
17525;BME280;40431;52.198;9.902;2023-02-22T09:00:30;100554.03;;;9.69;100.00
17525;BME280;40431;52.198;9.902;2023-02-22T09:02:57;100555.28;;;9.79;100.00
17525;BME280;40431;52.198;9.902;2023-02-22T09:05:24;100550.47;;;9.84;100.00
17525;BME280;40431;52.198;9.902;2023-02-22T09:07:50;100543.56;;;9.95;100.00
17525;BME280;40431;52.198;9.902;2023-02-22T09:10:19;100535.75;;;10.05;100.00
17525;BME280;40431;52.198;9.902;2023-02-22T09:12:48;100538.09;;;10.11;100.00
17525;BME280;40431;52.198;9.902;2023-02-22T09:15:16;100535.91;;;10.17;100.00
17525;BME280;40431;52.198;9.902;2023-02-22T09:17:42;100535.44;;;10.25;100.00
17525;BME280;40431;52.198;9.902;2023-02-22T09:20:09;100531.38;;;10.32;100.00
17525;BME280;40431;52.198;9.902;2023-02-22T09:22:36;100527.34;;;10.40;100.00
17525;BME280;40431;52.198;9.902;2023-02-22T09:25:04;100530.97;;;10.40;100.00
17525;BME280;40431;52.198;9.902;2023-02-22T09:27:30;100524.75;;;10.38;100.00
17525;BME280;40431;52.198;9.902;2023-02-22T09:29:57;100529.59;;;10.47;100.00
17525;BME280;40431;52.198;9.902;2023-02-22T09:32:25;100511.53;;;10.48;100.00
17525;BME280;40431;52.198;9.902;2023-02-22T09:34:52;100513.53;;;10.44;100.00
17525;BME280;40431;52.198;9.902;2023-02-22T09:37:19;100511.78;;;10.43;100.00
17525;BME280;40431;52.198;9.902;2023-02-22T09:39:46;100521.56;;;10.46;100.00
17525;BME280;40431;52.198;9.902;2023-02-22T09:42:16;100523.31;;;10.47;100.00
17525;BME280;40431;52.198;9.902;2023-02-22T09:44:49;100518.75;;;10.47;100.00
17525;BME280;40431;52.198;9.902;2023-02-22T09:47:19;100512.97;;;10.53;100.00
17525;BME280;40431;52.198;9.902;2023-02-22T09:50:00;100515.88;;;10.65;100.00
17525;BME280;40431;52.198;9.902;2023-02-22T09:52:29;100511.16;;;10.68;100.00
17525;BME280;40431;52.198;9.902;2023-02-22T09:55:06;100512.59;;;10.74;100.00
17525;BME280;40431;52.198;9.902;2023-02-22T09:57:35;100517.06;;;10.75;100.00
17525;BME280;40431;52.198;9.902;2023-02-22T10:00:10;100507.47;;;10.84;100.00
17525;BME280;40431;52.198;9.902;2023-02-22T10:02:43;100509.50;;;10.80;100.00
17525;BME280;40431;52.198;9.902;2023-02-22T10:05:15;100507.38;;;10.85;100.00
17525;BME280;40431;52.198;9.902;2023-02-22T10:07:48;100505.47;;;10.88;100.00
17525;BME280;40431;52.198;9.902;2023-02-22T10:10:18;100497.81;;;10.94;100.00
17525;BME280;40431;52.198;9.902;2023-02-22T10:12:50;100498.66;;;10.95;100.00
17525;BME280;40431;52.198;9.902;2023-02-22T10:15:35;100493.81;;;11.00;100.00
17525;BME280;40431;52.198;9.902;2023-02-22T10:21:06;100488.88;;;11.07;100.00
17525;BME280;40431;52.198;9.902;2023-02-22T10:23:41;100499.34;;;11.13;100.00
17525;BME280;40431;52.198;9.902;2023-02-22T10:26:14;100487.22;;;11.18;100.00
17525;BME280;40431;52.198;9.902;2023-02-22T10:28:44;100489.44;;;11.26;100.00
17525;BME280;40431;52.198;9.902;2023-02-22T10:31:19;100484.06;;;11.39;100.00
17525;BME280;40431;52.198;9.902;2023-02-22T10:33:47;100486.47;;;11.44;100.00
17525;BME280;40431;52.198;9.902;2023-02-22T10:36:21;100481.91;;;11.44;100.00
17525;BME280;40431;52.198;9.902;2023-02-22T10:38:53;100480.84;;;11.47;100.00
17525;BME280;40431;52.198;9.902;2023-02-22T10:41:26;100478.78;;;11.50;100.00
17525;BME280;40431;52.198;9.902;2023-02-22T10:43:54;100470.72;;;11.63;100.00
17525;BME280;40431;52.198;9.902;2023-02-22T10:46:21;100466.16;;;11.64;100.00
17525;BME280;40431;52.198;9.902;2023-02-22T10:48:50;100462.25;;;11.68;100.00
17525;BME280;40431;52.198;9.902;2023-02-22T10:51:17;100449.22;;;11.73;100.00
17525;BME280;40431;52.198;9.902;2023-02-22T10:53:54;100454.66;;;11.73;100.00
17525;BME280;40431;52.198;9.902;2023-02-22T10:56:23;100448.44;;;11.71;100.00
17525;BME280;40431;52.198;9.902;2023-02-22T10:58:54;100445.53;;;11.74;100.00
17525;BME280;40431;52.198;9.902;2023-02-22T11:01:26;100451.84;;;11.75;100.00
17525;BME280;40431;52.198;9.902;2023-02-22T11:04:00;100450.75;;;11.77;100.00
17525;BME280;40431;52.198;9.902;2023-02-22T11:06:30;100441.63;;;11.78;100.00
17525;BME280;40431;52.198;9.902;2023-02-22T11:09:09;100445.88;;;11.82;100.00
17525;BME280;40431;52.198;9.902;2023-02-22T11:11:38;100435.34;;;11.91;100.00
17525;BME280;40431;52.198;9.902;2023-02-22T11:14:06;100447.78;;;11.95;100.00
17525;BME280;40431;52.198;9.902;2023-02-22T11:16:36;100441.38;;;11.96;100.00
17525;BME280;40431;52.198;9.902;2023-02-22T11:19:10;100437.19;;;12.05;100.00
17525;BME280;40431;52.198;9.902;2023-02-22T11:21:38;100423.66;;;12.03;100.00
17525;BME280;40431;52.198;9.902;2023-02-22T11:24:08;100431.41;;;12.09;100.00
17525;BME280;40431;52.198;9.902;2023-02-22T11:26:37;100431.09;;;12.14;100.00
17525;BME280;40431;52.198;9.902;2023-02-22T11:29:10;100422.59;;;12.18;100.00
17525;BME280;40431;52.198;9.902;2023-02-22T11:31:41;100426.97;;;12.21;100.00
17525;BME280;40431;52.198;9.902;2023-02-22T11:34:24;100420.75;;;12.32;100.00
17525;BME280;40431;52.198;9.902;2023-02-22T11:36:51;100417.41;;;12.41;100.00
17525;BME280;40431;52.198;9.902;2023-02-22T11:39:24;100414.38;;;12.46;100.00
17525;BME280;40431;52.198;9.902;2023-02-22T11:41:51;100403.91;;;12.52;100.00
17525;BME280;40431;52.198;9.902;2023-02-22T11:44:23;100411.84;;;12.56;100.00
17525;BME280;40431;52.198;9.902;2023-02-22T11:46:51;100403.47;;;12.59;100.00
17525;BME280;40431;52.198;9.902;2023-02-22T11:49:20;100398.78;;;12.61;100.00
17525;BME280;40431;52.198;9.902;2023-02-22T11:51:55;100395.84;;;12.64;100.00
17525;BME280;40431;52.198;9.902;2023-02-22T11:54:56;100391.16;;;12.66;100.00
17525;BME280;40431;52.198;9.902;2023-02-22T11:57:47;100384.72;;;12.67;100.00
17525;BME280;40431;52.198;9.902;2023-02-22T12:00:21;100384.53;;;12.70;100.00
17525;BME280;40431;52.198;9.902;2023-02-22T12:03:33;100377.63;;;12.77;100.00
17525;BME280;40431;52.198;9.902;2023-02-22T12:06:10;100368.06;;;12.84;100.00
17525;BME280;40431;52.198;9.902;2023-02-22T12:08:47;100374.66;;;12.93;100.00
17525;BME280;40431;52.198;9.902;2023-02-22T12:11:22;100367.88;;;12.99;100.00
17525;BME280;40431;52.198;9.902;2023-02-22T12:14:00;100361.13;;;13.05;100.00
17525;BME280;40431;52.198;9.902;2023-02-22T12:16:40;100364.25;;;13.11;100.00
17525;BME280;40431;52.198;9.902;2023-02-22T12:19:18;100355.84;;;13.14;100.00
17525;BME280;40431;52.198;9.902;2023-02-22T12:21:52;100354.44;;;13.22;100.00
17525;BME280;40431;52.198;9.902;2023-02-22T12:24:23;100353.66;;;13.19;100.00
17525;BME280;40431;52.198;9.902;2023-02-22T12:26:56;100354.94;;;13.27;100.00
17525;BME280;40431;52.198;9.902;2023-02-22T12:29:29;100348.50;;;13.28;100.00
17525;BME280;40431;52.198;9.902;2023-02-22T12:32:01;100351.63;;;13.34;100.00
17525;BME280;40431;52.198;9.902;2023-02-22T12:34:33;100348.59;;;13.39;100.00
17525;BME280;40431;52.198;9.902;2023-02-22T12:37:10;100349.84;;;13.46;100.00
17525;BME280;40431;52.198;9.902;2023-02-22T12:39:47;100347.41;;;13.55;100.00
17525;BME280;40431;52.198;9.902;2023-02-22T12:42:18;100341.50;;;13.61;100.00
17525;BME280;40431;52.198;9.902;2023-02-22T12:44:58;100336.69;;;13.64;100.00
17525;BME280;40431;52.198;9.902;2023-02-22T12:47:30;100340.53;;;13.73;98.66
17525;BME280;40431;52.198;9.902;2023-02-22T12:50:04;100338.31;;;13.78;97.81
17525;BME280;40431;52.198;9.902;2023-02-22T12:52:39;100336.75;;;13.87;98.62
17525;BME280;40431;52.198;9.902;2023-02-22T12:55:13;100331.56;;;13.95;97.61
17525;BME280;40431;52.198;9.902;2023-02-22T12:57:47;100332.53;;;13.94;96.01
17525;BME280;40431;52.198;9.902;2023-02-22T13:00:19;100328.06;;;13.93;95.49
17525;BME280;40431;52.198;9.902;2023-02-22T13:02:56;100338.63;;;13.98;96.23
17525;BME280;40431;52.198;9.902;2023-02-22T13:05:26;100326.88;;;13.97;95.17
17525;BME280;40431;52.198;9.902;2023-02-22T13:08:04;100324.00;;;13.99;95.62